La Sirena — WDH9389 — position and weather

sailwx.info

Track history (hours):
 
Tides and Currents Weather Stations Pressure Air Temp Water Temp Dewpoint Dewpoint Depression Visibility Wind Speed Wind Dir Waves Ship Positions

La Sirena

Owner: LS43 Inc., Long Beach, CA. More information available from US FCC via Universal Licensing System and Coast Guard Vessel Documentation Center.

Last reported at 2017-Sep-13 15:19 UTC. Time now 2017-Sep-23 16:29 UTC.
Position N 32°43' W 117°13'.
Warning: this ship's position is 10 days out of date.

Length 14 m.

Type: Pleasure craft. MMSI: 367667540.

Date/timePositionNaut miles runAvg speedWind from/ knotsBaromVisibWave heightAir tempDewpointWater temp
2017-Sep-13 15:19N 32°43' W 117°13'1 0.1
2017-Sep-12 23:31N 32°43' W 117°14'0 0.0
2017-Sep-12 23:29N 32°43' W 117°14'3 3.9
2017-Sep-12 22:50N 32°41' W 117°16'3 9.7
2017-Sep-12 22:29N 32°44' W 117°17'510.5
2017-Sep-12 22:01N 32°49' W 117°17'510.2
2017-Sep-12 21:31N 32°54' W 117°18'510.0
2017-Sep-12 21:00N 32°59' W 117°18'510.1
2017-Sep-12 20:30N 33°04' W 117°19'0 0.6
2017-Sep-12 20:01N 33°04' W 117°19'4 8.2
2017-Sep-12 19:31N 33°08' W 117°21'510.2
2017-Sep-12 19:01N 33°12' W 117°24'1 0.0
2017-Sep-10 23:28N 33°12' W 117°25'816.7
2017-Sep-10 23:01N 33°11' W 117°34'816.2
2017-Sep-10 22:31N 33°10' W 117°44'612.9
2017-Sep-10 22:01N 33°10' W 117°52'4 7.8
2017-Sep-10 21:30N 33°10' W 117°56'4 7.9
2017-Sep-10 20:58N 33°10' W 118°01'4 8.6
2017-Sep-10 20:31N 33°11' W 118°06'816.2
2017-Sep-10 20:01N 33°17' W 118°13'712.5
2017-Sep-10 19:29N 33°21' W 118°19'0 0.0
2017-Sep-08 16:18N 33°21' W 118°20'0 0.5
2017-Sep-08 15:58N 33°21' W 118°19'  
Track history (hours):
 
Tides and Currents Weather Stations Pressure Air Temp Water Temp Dewpoint Dewpoint Depression Visibility Wind Speed Wind Dir Waves Ship Positions

La Sirena

Owner: LS43 Inc., Long Beach, CA. More information available from US FCC via Universal Licensing System and Coast Guard Vessel Documentation Center.

Last reported at 2017-Sep-13 15:19 UTC. Time now 2017-Sep-23 16:29 UTC.
Position N 32°43' W 117°13'.
Warning: this ship's position is 10 days out of date.

Length 14 m.

Type: Pleasure craft. MMSI: 367667540.

Date/timePositionNaut miles runAvg speedWind from/ knotsBaromVisibWave heightAir tempDewpointWater temp
2017-Sep-13 15:19N 32°43' W 117°13'1 0.1
2017-Sep-12 23:31N 32°43' W 117°14'0 0.0
2017-Sep-12 23:29N 32°43' W 117°14'3 3.9
2017-Sep-12 22:50N 32°41' W 117°16'3 9.7
2017-Sep-12 22:29N 32°44' W 117°17'510.5
2017-Sep-12 22:01N 32°49' W 117°17'510.2
2017-Sep-12 21:31N 32°54' W 117°18'510.0
2017-Sep-12 21:00N 32°59' W 117°18'510.1
2017-Sep-12 20:30N 33°04' W 117°19'0 0.6
2017-Sep-12 20:01N 33°04' W 117°19'4 8.2
2017-Sep-12 19:31N 33°08' W 117°21'510.2
2017-Sep-12 19:01N 33°12' W 117°24'1 0.0
2017-Sep-10 23:28N 33°12' W 117°25'816.7
2017-Sep-10 23:01N 33°11' W 117°34'816.2
2017-Sep-10 22:31N 33°10' W 117°44'612.9
2017-Sep-10 22:01N 33°10' W 117°52'4 7.8
2017-Sep-10 21:30N 33°10' W 117°56'4 7.9
2017-Sep-10 20:58N 33°10' W 118°01'4 8.6
2017-Sep-10 20:31N 33°11' W 118°06'816.2
2017-Sep-10 20:01N 33°17' W 118°13'712.5
2017-Sep-10 19:29N 33°21' W 118°19'0 0.0
2017-Sep-08 16:18N 33°21' W 118°20'0 0.5
2017-Sep-08 15:58N 33°21' W 118°19'  

Dump ship's entire track history